Time;durP1;ratioP1;P1;durP2;ratioP2;P2;SDS_P1;SDS_P2;PMS_P1;PMS_P2;Temp;Humidity;BMP_temperature;BMP_pressure;BME280_temperature;BME280_humidity;BME280_pressure;Samples;Min_cycle;Max_cycle;Signal;HPM_P1;HPM_P2
2021/09/05 00:00:09;;;;;;;19.50;10.40;;;;;;;12.01;100.00;102036.94;2615902;31;20076;-64
2021/09/05 00:02:39;;;;;;;21.15;11.23;;;;;;;12.03;100.00;102040.41;2616619;36;20114;-63
2021/09/05 00:05:09;;;;;;;20.02;11.15;;;;;;;12.07;100.00;102039.19;2617471;31;20503;-63
2021/09/05 00:07:37;;;;;;;20.80;11.95;;;;;;;12.01;100.00;102051.28;2616178;36;20646;-63
2021/09/05 00:10:06;;;;;;;21.80;11.30;;;;;;;11.95;100.00;102045.50;2615674;36;20634;-63
2021/09/05 00:12:35;;;;;;;;;;;;;;;11.94;100.00;102049.19;2617437;31;20520;-63
2021/09/05 00:15:03;;;;;;;21.98;12.02;;;;;;;11.86;100.00;102039.78;2616639;31;20431;-63
2021/09/05 00:17:31;;;;;;;21.75;11.43;;;;;;;11.88;100.00;102047.75;2616340;31;20038;-64
2021/09/05 00:20:02;;;;;;;25.77;13.07;;;;;;;11.86;100.00;102049.72;2615818;36;20130;-63
2021/09/05 00:22:30;;;;;;;23.00;12.02;;;;;;;11.81;100.00;102055.47;2616513;36;20526;-64
2021/09/05 00:24:58;;;;;;;27.17;11.52;;;;;;;11.75;100.00;102045.16;2616156;31;20034;-63
2021/09/05 00:27:27;;;;;;;20.98;11.63;;;;;;;11.73;100.00;102044.38;2616876;31;20184;-63
2021/09/05 00:29:55;;;;;;;24.35;12.23;;;;;;;11.70;100.00;102048.19;2615924;36;20145;-63
2021/09/05 00:32:23;;;;;;;19.00;10.13;;;;;;;11.74;100.00;102038.03;2616734;36;20524;-64
2021/09/05 00:34:52;;;;;;;21.30;11.20;;;;;;;11.71;100.00;102032.88;2616488;36;20729;-62
2021/09/05 00:37:22;;;;;;;21.60;11.82;;;;;;;11.67;100.00;102034.06;2616483;36;20125;-63
2021/09/05 00:39:50;;;;;;;20.95;11.85;;;;;;;11.66;100.00;102035.03;2616197;31;20065;-63
2021/09/05 00:42:24;;;;;;;25.35;12.93;;;;;;;11.60;100.00;102040.88;2616140;36;20166;-62
2021/09/05 00:44:54;;;;;;;21.90;11.90;;;;;;;11.56;100.00;102040.25;2616315;36;20034;-62
2021/09/05 00:47:22;;;;;;;20.45;11.48;;;;;;;11.57;100.00;102047.34;2615729;36;20062;-62
2021/09/05 00:49:50;;;;;;;20.42;11.73;;;;;;;11.56;100.00;102045.66;2616203;36;20153;-62
2021/09/05 00:52:18;;;;;;;22.85;12.07;;;;;;;11.54;100.00;102047.59;2616351;36;20154;-62
2021/09/05 00:54:50;;;;;;;23.13;12.87;;;;;;;11.57;100.00;102048.25;2616018;31;20118;-62
2021/09/05 00:57:19;;;;;;;19.58;11.65;;;;;;;11.53;100.00;102040.50;2616013;36;20315;-62
2021/09/05 00:59:48;;;;;;;22.42;12.32;;;;;;;11.42;100.00;102043.97;2615824;36;20139;-63
2021/09/05 01:02:17;;;;;;;21.05;11.77;;;;;;;11.43;100.00;102043.00;2615511;36;20026;-62
2021/09/05 01:04:45;;;;;;;21.63;11.82;;;;;;;11.41;100.00;102042.25;2616062;36;20030;-62
2021/09/05 01:07:14;;;;;;;27.30;13.25;;;;;;;11.32;100.00;102040.22;2616161;36;20034;-62
2021/09/05 01:09:43;;;;;;;22.67;12.15;;;;;;;11.30;100.00;102044.88;2616396;36;20023;-62
2021/09/05 01:12:13;;;;;;;20.10;11.50;;;;;;;11.25;100.00;102052.41;2615962;36;20042;-63
2021/09/05 01:14:42;;;;;;;22.90;12.40;;;;;;;11.21;100.00;102052.63;2615902;36;20158;-62
2021/09/05 01:17:12;;;;;;;17.70;11.98;;;;;;;11.20;100.00;102053.63;2615671;36;20118;-63
2021/09/05 01:19:40;;;;;;;20.40;12.15;;;;;;;11.20;100.00;102048.25;2616129;36;20547;-63
2021/09/05 01:22:09;;;;;;;21.35;12.40;;;;;;;11.16;100.00;102049.44;2617153;36;20565;-63
2021/09/05 01:24:37;;;;;;;19.73;11.93;;;;;;;11.15;100.00;102050.38;2616556;36;20085;-62
2021/09/05 01:27:08;;;;;;;25.30;12.73;;;;;;;11.18;100.00;102047.47;2616893;36;20089;-63
2021/09/05 01:29:36;;;;;;;23.42;12.85;;;;;;;11.17;100.00;102051.16;2616486;36;20043;-63
2021/09/05 01:32:06;;;;;;;23.73;12.68;;;;;;;11.30;100.00;102043.03;2616296;36;20611;-63
2021/09/05 01:34:34;;;;;;;;;;;;;;;11.32;100.00;102048.31;2617002;36;20031;-63
2021/09/05 01:37:02;;;;;;;23.35;12.30;;;;;;;11.16;100.00;102052.13;2616708;36;19945;-63
2021/09/05 01:39:30;;;;;;;22.77;11.45;;;;;;;11.06;100.00;102061.84;2616779;36;20027;-64
2021/09/05 01:41:58;;;;;;;25.33;12.55;;;;;;;11.02;100.00;102063.88;2616575;36;20134;-63
2021/09/05 01:44:29;;;;;;;24.60;13.20;;;;;;;11.01;100.00;102056.78;2617186;31;20605;-63
2021/09/05 01:46:57;;;;;;;19.33;12.05;;;;;;;10.97;100.00;102055.28;2615996;31;20073;-63
2021/09/05 01:49:26;;;;;;;21.92;12.75;;;;;;;10.97;100.00;102062.50;2616812;36;20126;-63
2021/09/05 01:51:54;;;;;;;21.25;13.55;;;;;;;10.90;100.00;102053.13;2616747;36;20117;-63
2021/09/05 01:54:22;;;;;;;20.73;11.93;;;;;;;10.92;100.00;102051.19;2616299;36;20118;-63
2021/09/05 01:56:50;;;;;;;20.25;12.45;;;;;;;10.90;100.00;102056.69;2616356;36;20042;-62
2021/09/05 01:59:18;;;;;;;20.48;12.45;;;;;;;10.82;100.00;102062.63;2617109;36;20469;-63
2021/09/05 02:01:49;;;;;;;20.25;11.10;;;;;;;10.85;100.00;102058.81;2616281;36;20118;-64
2021/09/05 02:04:17;;;;;;;22.88;12.82;;;;;;;10.79;100.00;102057.44;2615958;36;20593;-63
2021/09/05 02:06:46;;;;;;;24.77;12.90;;;;;;;10.74;100.00;102058.72;2614570;36;20122;-64
2021/09/05 02:09:14;;;;;;;23.55;12.15;;;;;;;10.73;100.00;102060.53;2614586;36;20118;-62
2021/09/05 02:11:42;;;;;;;23.13;12.60;;;;;;;10.75;100.00;102061.31;2616774;31;20042;-63
2021/09/05 02:14:10;;;;;;;24.95;12.85;;;;;;;10.73;100.00;102062.38;2616826;36;20121;-63
2021/09/05 02:16:38;;;;;;;24.00;12.82;;;;;;;10.79;100.00;102062.84;2615902;36;20646;-63
2021/09/05 02:19:09;;;;;;;23.10;12.77;;;;;;;10.79;100.00;102067.34;2616141;36;20118;-64
2021/09/05 02:21:37;;;;;;;28.95;13.02;;;;;;;10.76;100.00;102068.44;2616216;31;20538;-63
2021/09/05 02:24:06;;;;;;;23.65;13.50;;;;;;;10.63;100.00;102070.22;2614425;31;20146;-63
2021/09/05 02:26:34;;;;;;;23.63;13.25;;;;;;;10.56;100.00;102061.75;2616734;36;20125;-65
2021/09/05 02:29:02;;;;;;;24.27;13.57;;;;;;;10.57;100.00;102074.25;2614853;36;20117;-62
2021/09/05 02:31:31;;;;;;;19.58;11.20;;;;;;;10.63;100.00;102068.44;2613564;36;20122;-62
2021/09/05 02:33:59;;;;;;;27.40;13.05;;;;;;;10.57;100.00;102073.34;2615840;36;20531;-63
2021/09/05 02:36:30;;;;;;;24.50;13.77;;;;;;;10.61;100.00;102077.56;2614584;36;20062;-63
2021/09/05 02:38:58;;;;;;;26.13;13.82;;;;;;;10.56;100.00;102071.66;2615838;36;20038;-63
2021/09/05 02:41:26;;;;;;;25.30;13.80;;;;;;;10.44;100.00;102071.53;2616211;36;20130;-63
2021/09/05 02:43:55;;;;;;;26.08;13.20;;;;;;;10.49;100.00;102079.28;2616017;36;20022;-63
2021/09/05 02:46:23;;;;;;;23.23;12.88;;;;;;;10.47;100.00;102074.00;2615690;36;20638;-63
2021/09/05 02:48:51;;;;;;;26.60;13.98;;;;;;;10.40;100.00;102083.47;2616492;31;21582;-63
2021/09/05 02:51:19;;;;;;;23.92;13.07;;;;;;;10.40;100.00;102078.09;2616423;36;20110;-63
2021/09/05 02:53:50;;;;;;;26.13;14.13;;;;;;;10.38;100.00;102080.03;2615328;31;20022;-63
2021/09/05 02:56:18;;;;;;;28.90;14.18;;;;;;;10.40;100.00;102080.78;2616257;36;20058;-64
2021/09/05 02:58:46;;;;;;;25.10;13.48;;;;;;;10.37;100.00;102069.38;2616105;36;20121;-63
2021/09/05 03:01:14;;;;;;;26.20;14.57;;;;;;;10.37;100.00;102077.44;2615925;36;20085;-63
2021/09/05 03:03:43;;;;;;;25.13;14.32;;;;;;;10.35;100.00;102069.47;2616289;31;20129;-63
2021/09/05 03:06:11;;;;;;;26.67;14.02;;;;;;;10.34;100.00;102078.50;2616549;36;20114;-63
2021/09/05 03:08:39;;;;;;;24.58;13.63;;;;;;;10.30;100.00;102068.88;2616144;31;20130;-63
2021/09/05 03:11:10;;;;;;;23.05;14.60;;;;;;;10.29;100.00;102069.84;2616254;36;20114;-63
2021/09/05 03:13:38;;;;;;;26.70;14.27;;;;;;;10.28;100.00;102070.81;2616277;36;20053;-63
2021/09/05 03:16:06;;;;;;;27.33;14.35;;;;;;;10.24;100.00;102072.00;2615327;36;20122;-63
2021/09/05 03:18:35;;;;;;;26.67;14.80;;;;;;;10.27;100.00;102066.41;2615758;31;20022;-63
2021/09/05 03:23:58;;;;;;;25.35;15.30;;;;;;;10.25;100.00;102065.66;2613879;54;20069;-63
2021/09/05 03:26:28;;;;;;;30.00;14.93;;;;;;;10.16;100.00;102065.31;2616000;31;20022;-63
2021/09/05 03:28:57;;;;;;;25.88;14.38;;;;;;;10.14;100.00;102064.56;2616097;36;20118;-63
2021/09/05 03:31:25;;;;;;;27.23;14.37;;;;;;;10.29;100.00;102075.22;2615294;36;20023;-62
2021/09/05 03:33:53;;;;;;;28.85;14.95;;;;;;;10.29;100.00;102075.22;2615940;36;20073;-63
2021/09/05 03:36:22;;;;;;;32.50;16.90;;;;;;;10.23;100.00;102073.84;2615845;36;20118;-63
2021/09/05 03:38:50;;;;;;;25.08;14.50;;;;;;;10.24;100.00;102077.38;2616390;36;20459;-63
2021/09/05 03:41:18;;;;;;;27.80;15.02;;;;;;;10.19;100.00;102072.31;2616011;36;20043;-63
2021/09/05 03:43:49;;;;;;;24.00;14.55;;;;;;;10.18;100.00;102068.72;2615094;36;20137;-64
2021/09/05 03:46:17;;;;;;;24.80;14.45;;;;;;;10.15;100.00;102073.47;2616792;31;20524;-63
2021/09/05 03:48:45;;;;;;;27.95;15.40;;;;;;;10.15;100.00;102068.94;2615389;36;20146;-63
2021/09/05 03:51:14;;;;;;;25.08;14.13;;;;;;;10.16;100.00;102076.06;2615724;36;20080;-62
2021/09/05 03:53:43;;;;;;;23.77;14.55;;;;;;;10.07;100.00;102070.44;2615965;36;20057;-63
2021/09/05 03:56:12;;;;;;;26.48;14.63;;;;;;;10.01;100.00;102082.44;2615526;36;20038;-63
2021/09/05 03:58:40;;;;;;;27.73;15.07;;;;;;;10.00;100.00;102081.59;2615639;36;20420;-63
2021/09/05 04:01:11;;;;;;;30.23;15.00;;;;;;;9.92;100.00;102072.31;2614969;36;20134;-64
2021/09/05 04:03:39;;;;;;;25.02;14.52;;;;;;;9.91;100.00;102076.84;2615680;36;20027;-63
2021/09/05 04:06:08;;;;;;;25.45;15.38;;;;;;;9.87;100.00;102079.84;2615739;36;20023;-63
2021/09/05 04:08:42;;;;;;;25.65;14.50;;;;;;;9.91;100.00;102087.59;2615584;31;20114;-64
2021/09/05 04:11:10;;;;;;;26.05;15.20;;;;;;;9.84;100.00;102080.06;2616044;36;20126;-63
2021/09/05 04:13:38;;;;;;;24.73;14.32;;;;;;;9.84;100.00;102086.28;2616066;36;20110;-63
2021/09/05 04:16:07;;;;;;;26.23;14.98;;;;;;;9.81;100.00;102094.56;2615588;36;20054;-63
2021/09/05 04:18:38;;;;;;;29.83;14.87;;;;;;;9.84;100.00;102090.81;2615141;36;20138;-63
2021/09/05 04:21:06;;;;;;;26.52;15.07;;;;;;;9.81;100.00;102091.88;2616021;36;20118;-64
2021/09/05 04:23:34;;;;;;;28.83;15.18;;;;;;;9.85;100.00;102087.13;2615950;36;20165;-64
2021/09/05 04:26:03;;;;;;;25.93;13.83;;;;;;;9.84;100.00;102090.81;2615855;36;20035;-64
2021/09/05 04:28:31;;;;;;;27.30;15.43;;;;;;;9.73;100.00;102095.06;2615046;36;20424;-63
2021/09/05 04:30:59;;;;;;;28.35;14.95;;;;;;;9.74;100.00;102094.06;2615585;36;20126;-64
2021/09/05 04:33:27;;;;;;;28.20;15.25;;;;;;;9.69;100.00;102088.16;2615667;31;20070;-64
2021/09/05 04:35:59;;;;;;;30.80;16.75;;;;;;;9.77;100.00;102095.72;2615260;36;20043;-63
2021/09/05 04:38:27;;;;;;;30.88;16.38;;;;;;;9.78;100.00;102095.59;2615233;36;20540;-63
2021/09/05 04:40:55;;;;;;;32.90;15.52;;;;;;;9.80;100.00;102093.69;2615391;36;20027;-63
2021/09/05 04:43:24;;;;;;;32.08;16.33;;;;;;;9.78;100.00;102090.22;2615484;36;20163;-63
2021/09/05 04:45:52;;;;;;;28.60;15.70;;;;;;;9.83;100.00;102095.31;2615216;36;20133;-63
2021/09/05 04:48:20;;;;;;;30.77;16.05;;;;;;;9.77;100.00;102107.31;2616058;31;20121;-63
2021/09/05 04:50:48;;;;;;;30.80;16.45;;;;;;;9.76;100.00;102104.72;2615556;36;20154;-63
2021/09/05 04:53:19;;;;;;;31.23;16.92;;;;;;;9.67;100.00;102116.94;2616027;36;20619;-63
2021/09/05 04:55:47;;;;;;;27.40;15.73;;;;;;;9.71;100.00;102110.41;2615765;36;20058;-63
2021/09/05 04:58:16;;;;;;;34.45;17.13;;;;;;;9.78;100.00;102111.75;2615811;36;20038;-63
2021/09/05 05:00:44;;;;;;;29.20;15.57;;;;;;;9.76;100.00;102116.38;2615684;31;20149;-64
2021/09/05 05:03:12;;;;;;;29.88;16.45;;;;;;;9.78;100.00;102117.13;2616199;36;20150;-63
2021/09/05 05:05:41;;;;;;;34.80;17.08;;;;;;;9.81;100.00;102121.44;2616515;36;20157;-63
2021/09/05 05:08:09;;;;;;;26.35;16.23;;;;;;;9.81;100.00;102116.06;2616372;36;20541;-63
2021/09/05 05:10:40;;;;;;;30.48;17.25;;;;;;;9.80;100.00;102123.28;2616173;36;20629;-64
2021/09/05 05:13:08;;;;;;;31.05;16.50;;;;;;;9.78;100.00;102124.34;2616894;36;20046;-63
2021/09/05 05:15:36;;;;;;;28.05;16.40;;;;;;;9.76;100.00;102121.75;2615866;36;20630;-63
2021/09/05 05:18:04;;;;;;;30.55;17.52;;;;;;;9.84;100.00;102123.06;2616076;31;20129;-62
2021/09/05 05:20:33;;;;;;;26.23;16.10;;;;;;;9.84;100.00;102125.75;2615865;36;20069;-63
2021/09/05 05:23:01;;;;;;;26.25;16.75;;;;;;;9.89;100.00;102127.16;2616026;31;20023;-63
2021/09/05 05:25:29;;;;;;;29.92;16.92;;;;;;;9.94;100.00;102129.56;2616593;36;20062;-63
2021/09/05 05:28:00;;;;;;;30.70;17.60;;;;;;;9.94;100.00;102129.56;2616372;36;20133;-64
2021/09/05 05:30:28;;;;;;;37.85;18.00;;;;;;;10.07;100.00;102135.00;2616247;31;20584;-64
2021/09/05 05:32:58;;;;;;;26.08;15.30;;;;;;;10.04;100.00;102128.00;2616333;36;20622;-63
2021/09/05 05:35:26;;;;;;;31.77;16.80;;;;;;;9.99;100.00;102127.44;2616217;36;20058;-63
2021/09/05 05:37:54;;;;;;;37.90;17.50;;;;;;;10.02;100.00;102131.75;2615952;36;20073;-64
2021/09/05 05:40:25;;;;;;;28.90;16.52;;;;;;;10.04;100.00;102129.81;2616583;36;20054;-64
2021/09/05 05:42:53;;;;;;;29.52;16.83;;;;;;;10.09;100.00;102128.53;2616140;36;20027;-64
2021/09/05 05:45:24;;;;;;;30.48;16.48;;;;;;;10.09;100.00;102128.53;2616154;36;20027;-64
2021/09/05 05:47:52;;;;;;;37.33;16.95;;;;;;;10.09;100.00;102131.25;2616897;31;20527;-64
2021/09/05 05:50:21;;;;;;;28.00;16.45;;;;;;;10.14;100.00;102129.13;2615784;36;20146;-64
2021/09/05 05:52:49;;;;;;;30.58;16.50;;;;;;;10.21;100.00;102137.63;2616440;36;20035;-64
2021/09/05 05:55:17;;;;;;;28.67;15.90;;;;;;;10.27;100.00;102128.28;2616465;36;20169;-63
2021/09/05 05:57:45;;;;;;;27.25;15.48;;;;;;;10.37;100.00;102132.13;2616171;36;20077;-64
2021/09/05 06:00:15;;;;;;;28.77;16.58;;;;;;;10.32;100.00;102131.50;2614619;36;20042;-64
2021/09/05 06:02:46;;;;;;;31.58;16.63;;;;;;;10.40;100.00;102145.38;2615836;36;20097;-65
2021/09/05 06:05:14;;;;;;;26.48;16.38;;;;;;;10.44;100.00;102133.44;2617448;31;20527;-64
2021/09/05 06:07:43;;;;;;;27.60;15.63;;;;;;;10.35;100.00;102126.00;2615791;36;20030;-64
2021/09/05 06:10:12;;;;;;;29.10;16.17;;;;;;;10.42;100.00;102135.34;2616303;36;20118;-64
2021/09/05 06:12:41;;;;;;;28.05;15.50;;;;;;;10.48;100.00;102137.66;2616563;36;20118;-64
2021/09/05 06:15:10;;;;;;;30.38;16.48;;;;;;;10.56;100.00;102134.44;2615638;36;20030;-64
2021/09/05 06:17:38;;;;;;;29.05;15.30;;;;;;;10.62;100.00;102131.31;2616449;36;20038;-65
2021/09/05 06:20:11;;;;;;;29.87;16.23;;;;;;;10.79;100.00;102143.63;2615917;36;20034;-64
2021/09/05 06:22:39;;;;;;;30.42;15.52;;;;;;;10.73;100.00;102138.63;2616167;36;20066;-64
2021/09/05 06:25:08;;;;;;;26.35;15.25;;;;;;;10.72;100.00;102139.63;2616853;36;20522;-63
2021/09/05 06:27:36;;;;;;;26.40;16.08;;;;;;;10.81;100.00;102140.81;2616440;36;20110;-64
2021/09/05 06:30:05;;;;;;;28.88;16.35;;;;;;;10.96;100.00;102138.91;2615374;36;20174;-64
2021/09/05 06:32:33;;;;;;;21.35;13.52;;;;;;;11.11;100.00;102132.41;2616261;36;20166;-64
2021/09/05 06:35:02;;;;;;;28.27;15.23;;;;;;;11.07;100.00;102136.31;2616227;36;20042;-64
2021/09/05 06:37:32;;;;;;;24.52;14.77;;;;;;;11.09;100.00;102145.13;2616155;36;20158;-64
2021/09/05 06:40:00;;;;;;;25.05;15.82;;;;;;;11.21;100.00;102144.25;2616125;36;20432;-65
2021/09/05 06:42:29;;;;;;;29.48;15.05;;;;;;;11.27;100.00;102140.28;2616273;36;20634;-64
2021/09/05 06:44:57;;;;;;;30.33;16.10;;;;;;;11.36;100.00;102142.31;2616320;36;20535;-64
2021/09/05 06:47:25;;;;;;;20.77;13.93;;;;;;;11.36;100.00;102147.69;2615365;36;20037;-64
2021/09/05 06:49:53;;;;;;;24.02;14.40;;;;;;;11.53;100.00;102143.81;2615764;36;20089;-64
2021/09/05 06:52:21;;;;;;;27.58;15.82;;;;;;;11.61;100.00;102145.09;2617084;31;20063;-64
2021/09/05 06:54:52;;;;;;;27.98;15.52;;;;;;;11.62;100.00;102141.44;2615209;36;20554;-64
2021/09/05 06:57:20;;;;;;;26.42;15.85;;;;;;;11.72;100.00;102137.94;2615949;36;20065;-64
2021/09/05 06:59:49;;;;;;;27.45;14.13;;;;;;;11.96;100.00;102133.59;2615942;36;20197;-64
2021/09/05 07:04:44;;;;;;;24.92;14.88;;;;;;;12.21;100.00;102128.06;2616250;31;20555;-64
2021/09/05 07:07:12;;;;;;;25.90;14.90;;;;;;;12.31;100.00;102140.84;2617159;31;20504;-64
2021/09/05 07:09:40;;;;;;;26.52;14.63;;;;;;;12.27;100.00;102129.44;2617352;31;20110;-64
2021/09/05 07:12:12;;;;;;;25.05;13.32;;;;;;;12.53;100.00;102137.38;2615790;36;20126;-64
2021/09/05 07:14:40;;;;;;;22.83;13.80;;;;;;;12.61;100.00;102135.81;2616324;36;20607;-64
2021/09/05 07:17:08;;;;;;;23.60;13.93;;;;;;;12.61;100.00;102138.50;2615021;36;20069;-64
2021/09/05 07:19:37;;;;;;;23.60;13.05;;;;;;;12.75;100.00;102150.09;2616494;31;20525;-64
2021/09/05 07:22:05;;;;;;;23.33;12.43;;;;;;;12.95;100.00;102146.69;2615613;36;20034;-64
2021/09/05 07:24:33;;;;;;;21.98;13.13;;;;;;;13.15;100.00;102149.69;2616078;36;20052;-64
2021/09/05 07:27:02;;;;;;;18.67;11.15;;;;;;;13.45;100.00;102140.16;2615767;36;20035;-64
2021/09/05 07:29:33;;;;;;;20.52;12.07;;;;;;;13.57;100.00;102144.56;2616200;36;20130;-64
2021/09/05 07:32:01;;;;;;;20.05;12.27;;;;;;;13.58;100.00;102140.88;2615808;31;20407;-64
2021/09/05 07:34:29;;;;;;;20.33;12.18;;;;;;;13.69;100.00;102149.97;2615231;36;20130;-64
2021/09/05 07:36:57;;;;;;;21.10;11.63;;;;;;;13.76;100.00;102154.75;2616360;36;20089;-64
2021/09/05 07:39:25;;;;;;;23.25;10.70;;;;;;;13.89;100.00;102157.31;2616168;36;20162;-63
2021/09/05 07:44:26;;;;;;;17.05;10.25;;;;;;;14.16;100.00;102153.28;2614633;36;20122;-64
2021/09/05 07:46:58;;;;;;;17.05;9.30;;;;;;;14.34;100.00;102151.78;2614349;36;20118;-64
2021/09/05 07:49:27;;;;;;;16.85;10.80;;;;;;;14.47;100.00;102148.00;2616352;36;20404;-63
2021/09/05 07:51:55;;;;;;;;;;;;;;;14.63;100.00;102147.59;2616734;36;20442;-63
2021/09/05 07:54:23;;;;;;;14.25;8.65;;;;;;;14.66;100.00;102159.06;2615660;36;20041;-63
2021/09/05 07:56:52;;;;;;;16.42;9.48;;;;;;;14.74;100.00;102158.38;2615801;36;20130;-63
2021/09/05 07:59:20;;;;;;;16.17;8.48;;;;;;;14.99;100.00;102159.84;2615487;36;20118;-63
2021/09/05 08:01:48;;;;;;;15.15;9.07;;;;;;;15.10;100.00;102160.75;2615485;36;20030;-63
2021/09/05 08:04:19;;;;;;;14.05;8.20;;;;;;;15.37;100.00;102165.59;2615557;36;20109;-63
2021/09/05 08:06:47;;;;;;;14.15;8.02;;;;;;;15.46;100.00;102163.91;2615704;36;20113;-63
2021/09/05 08:09:15;;;;;;;13.85;8.57;;;;;;;15.41;100.00;102167.94;2615885;36;20158;-64
2021/09/05 08:11:44;;;;;;;15.57;7.85;;;;;;;15.52;100.00;102160.69;2615287;36;20222;-64
2021/09/05 08:14:12;;;;;;;10.70;7.10;;;;;;;15.76;100.00;102153.03;2615877;31;20113;-63
2021/09/05 08:16:40;;;;;;;17.95;8.25;;;;;;;15.97;100.00;102160.25;2616056;36;20403;-64
2021/09/05 08:19:08;;;;;;;15.60;8.60;;;;;;;16.04;100.00;102155.13;2615548;36;20102;-64
2021/09/05 08:21:39;;;;;;;10.83;7.50;;;;;;;16.14;100.00;102156.00;2616181;36;20073;-64
2021/09/05 08:24:08;;;;;;;13.40;7.30;;;;;;;16.13;100.00;102154.28;2616304;31;20468;-63
2021/09/05 08:26:36;;;;;;;13.30;7.63;;;;;;;16.22;100.00;102158.88;2615547;36;20023;-63
2021/09/05 08:29:06;;;;;;;14.00;7.90;;;;;;;16.47;100.00;102156.59;2615754;36;20652;-64
2021/09/05 08:31:34;;;;;;;11.18;7.30;;;;;;;16.41;100.00;102157.16;2616808;36;20030;-63
2021/09/05 08:34:02;;;;;;;11.33;7.30;;;;;;;16.76;100.00;102164.72;2617819;31;20162;-64
2021/09/05 08:36:31;;;;;;;12.60;7.07;;;;;;;16.81;100.00;102165.16;2617214;36;20077;-63
2021/09/05 08:39:02;;;;;;;12.80;7.15;;;;;;;17.01;100.00;102170.59;2617926;36;20049;-63
2021/09/05 08:44:03;;;;;;;11.48;6.45;;;;;;;17.12;100.00;102178.59;2615930;54;20026;-63
2021/09/05 08:46:31;;;;;;;13.90;5.70;;;;;;;17.38;100.00;102182.53;2617891;31;20554;-64
2021/09/05 08:49:00;;;;;;;10.35;6.18;;;;;;;17.39;100.00;102184.22;2616857;36;20078;-64
2021/09/05 08:51:28;;;;;;;10.63;5.97;;;;;;;17.42;100.00;102184.81;2617004;36;20455;-64
2021/09/05 08:53:56;;;;;;;9.97;5.80;;;;;;;17.52;100.00;102184.78;2616996;36;20125;-64
2021/09/05 08:56:27;;;;;;;9.88;5.95;;;;;;;17.65;100.00;102184.41;2617046;36;20042;-63
2021/09/05 08:58:55;;;;;;;8.20;5.28;;;;;;;17.76;100.00;102176.06;2617325;36;20030;-63
2021/09/05 09:01:30;;;;;;;9.30;5.23;;;;;;;17.95;100.00;102177.00;2617149;36;20133;-63
2021/09/05 09:04:09;;;;;;;10.52;5.72;;;;;;;17.91;100.00;102178.31;2617162;36;20117;-64
2021/09/05 09:06:41;;;;;;;11.57;5.95;;;;;;;18.14;100.00;102181.47;2617392;36;20034;-63
2021/09/05 09:09:11;;;;;;;10.52;5.18;;;;;;;18.25;100.00;102188.56;2617276;36;20023;-64
2021/09/05 09:11:57;;;;;;;8.30;5.32;;;;;;;18.51;100.00;102185.91;2617140;36;20026;-64
2021/09/05 09:14:27;;;;;;;8.57;5.43;;;;;;;18.85;100.00;102186.03;2617270;36;20114;-63
2021/09/05 09:16:59;;;;;;;7.47;5.35;;;;;;;18.84;100.00;102186.19;2617296;36;20521;-64
2021/09/05 09:19:30;;;;;;;8.40;5.75;;;;;;;18.98;100.00;102184.81;2617288;36;20137;-62
2021/09/05 09:21:59;;;;;;;14.13;6.50;;;;;;;18.91;100.00;102185.41;2617694;36;20118;-61
2021/09/05 09:24:27;;;;;;;9.13;5.40;;;;;;;19.07;100.00;102186.56;2616843;36;20130;-61
2021/09/05 09:27:04;;;;;;;11.67;6.20;;;;;;;18.89;100.00;102187.47;2616992;36;20106;-62
2021/09/05 09:29:33;;;;;;;10.23;5.47;;;;;;;19.06;100.00;102185.69;2617316;36;20030;-62
2021/09/05 09:32:07;;;;;;;13.40;5.68;;;;;;;19.26;100.00;102183.63;2617124;36;20162;-62
2021/09/05 09:34:42;;;;;;;9.23;5.40;;;;;;;19.17;100.00;102175.53;2617331;36;20042;-62
2021/09/05 09:37:16;;;;;;;8.73;5.32;;;;;;;19.25;100.00;102184.63;2616893;36;20114;-62
2021/09/05 09:39:48;;;;;;;11.18;5.78;;;;;;;19.34;100.00;102176.50;2617877;31;20552;-62
2021/09/05 09:42:36;;;;;;;10.07;5.95;;;;;;;19.56;100.00;102181.38;2617055;31;20223;-64
2021/09/05 09:45:10;;;;;;;11.93;5.90;;;;;;;19.76;100.00;102168.34;2616673;36;20601;-62
2021/09/05 09:47:40;;;;;;;9.73;6.15;;;;;;;20.04;100.00;102173.59;2616350;36;20158;-62
2021/09/05 09:50:09;;;;;;;10.18;6.35;;;;;;;20.17;100.00;102167.66;2615814;36;20114;-64
2021/09/05 09:52:38;;;;;;;;;;;;;;;20.23;100.00;102166.09;2616798;36;20483;-64
2021/09/05 09:55:07;;;;;;;10.65;5.93;;;;;;;20.16;100.00;102165.94;2616391;36;19978;-62
2021/09/05 09:57:39;;;;;;;10.15;6.32;;;;;;;20.09;100.00;102170.34;2615188;36;20118;-62
2021/09/05 10:00:09;;;;;;;7.68;5.07;;;;;;;20.06;100.00;102170.69;2614805;36;20446;-63
2021/09/05 10:02:41;;;;;;;10.88;6.35;;;;;;;19.96;100.00;102170.81;2617263;36;20513;-63
2021/09/05 10:05:14;;;;;;;11.00;5.60;;;;;;;20.11;100.00;102162.81;2616562;36;20065;-64
2021/09/05 10:07:43;;;;;;;9.55;5.93;;;;;;;20.19;100.00;102160.13;2616232;36;20548;-63
2021/09/05 10:10:13;;;;;;;11.05;5.82;;;;;;;20.31;100.00;102164.22;2616246;31;20026;-62
2021/09/05 10:12:45;;;;;;;11.43;5.68;;;;;;;20.20;100.00;102163.69;2616475;36;20411;-63
2021/09/05 10:15:13;;;;;;;13.02;6.10;;;;;;;20.33;100.00;102168.69;2615326;36;20143;-64
2021/09/05 10:17:42;;;;;;;7.88;5.28;;;;;;;20.27;100.00;102157.41;2616771;31;20125;-63
2021/09/05 10:20:12;;;;;;;9.63;5.97;;;;;;;20.33;100.00;102155.84;2616805;31;20126;-63
2021/09/05 10:22:40;;;;;;;11.93;5.38;;;;;;;20.44;100.00;102165.63;2615217;36;20133;-63
2021/09/05 10:25:09;;;;;;;8.75;6.00;;;;;;;20.46;100.00;102155.38;2616370;36;20818;-63
2021/09/05 10:27:40;;;;;;;11.07;6.43;;;;;;;20.78;100.00;102159.16;2616490;36;20050;-63
2021/09/05 10:30:22;;;;;;;9.77;5.90;;;;;;;20.76;100.00;102161.19;2616088;36;20034;-64
2021/09/05 10:32:53;;;;;;;12.35;6.25;;;;;;;20.64;100.00;102158.78;2616491;36;20030;-63
2021/09/05 10:37:50;;;;;;;9.75;6.00;;;;;;;20.88;100.00;102159.84;2614010;54;20157;-64
2021/09/05 10:40:18;;;;;;;8.40;5.18;;;;;;;20.72;100.00;102159.84;2614985;36;20118;-64
2021/09/05 10:42:57;;;;;;;9.75;4.70;;;;;;;21.10;100.00;102151.94;2615481;36;20557;-63
2021/09/05 10:45:28;;;;;;;8.27;5.40;;;;;;;21.34;100.00;102156.50;2614956;36;20038;-63
2021/09/05 10:47:57;;;;;;;9.35;5.07;;;;;;;21.65;100.00;102145.59;2616337;36;20027;-64
2021/09/05 10:50:37;;;;;;;9.63;5.47;;;;;;;21.59;100.00;102151.81;2615762;36;20534;-63
2021/09/05 10:53:18;;;;;;;14.50;6.20;;;;;;;21.48;100.00;102143.94;2615502;36;20158;-64
2021/09/05 10:56:05;;;;;;;8.52;5.43;;;;;;;21.78;100.00;102135.97;2615128;36;20073;-64
2021/09/05 10:58:38;;;;;;;8.57;5.28;;;;;;;21.70;100.00;102129.50;2616172;36;20023;-64
2021/09/05 11:01:21;;;;;;;8.02;5.75;;;;;;;21.62;100.00;102128.69;2615965;36;20037;-63
2021/09/05 11:04:28;;;;;;;7.57;5.20;;;;;;;21.81;100.00;102132.88;2615228;36;20023;-63
2021/09/05 11:07:00;;;;;;;8.48;5.10;;;;;;;21.80;100.00;102136.63;2616446;31;20057;-63
2021/09/05 11:09:45;;;;;;;7.95;4.75;;;;;;;21.70;100.00;102134.97;2615692;36;20026;-63
2021/09/05 11:12:15;;;;;;;6.75;4.57;;;;;;;21.99;100.00;102138.91;2615039;36;20051;-64
2021/09/05 11:15:00;;;;;;;8.50;5.20;;;;;;;21.98;100.00;102142.72;2616498;36;20038;-64
2021/09/05 11:17:32;;;;;;;7.82;5.05;;;;;;;22.17;100.00;102146.00;2616314;31;20030;-63
2021/09/05 11:20:02;;;;;;;9.13;5.15;;;;;;;22.33;100.00;102142.31;2616381;36;20031;-64
2021/09/05 11:22:34;;;;;;;9.05;5.22;;;;;;;22.35;100.00;102141.13;2615537;36;20050;-64
2021/09/05 11:25:31;;;;;;;9.00;5.47;;;;;;;22.39;100.00;102136.09;2614635;31;20145;-64
2021/09/05 11:28:06;;;;;;;9.15;5.05;;;;;;;22.54;100.00;102145.25;2614657;36;20026;-63
2021/09/05 11:30:37;;;;;;;8.00;5.43;;;;;;;22.54;100.00;102138.88;2614570;36;20034;-64